createdAt,value
2022-08-17T00:02:25.274Z,100.00
2022-08-17T00:05:31.365Z,100.00
2022-08-17T00:08:36.765Z,100.00
2022-08-17T00:11:42.994Z,100.00
2022-08-17T00:15:05.400Z,100.00
2022-08-17T00:18:58.160Z,100.00
2022-08-17T00:21:56.381Z,100.00
2022-08-17T00:24:50.999Z,100.00
2022-08-17T00:27:52.499Z,100.00
2022-08-17T00:30:55.593Z,100.00
2022-08-17T00:33:57.714Z,100.00
2022-08-17T00:36:59.174Z,100.00
2022-08-17T00:40:00.861Z,100.00
2022-08-17T00:43:39.803Z,100.00
2022-08-17T00:46:43.521Z,100.00
2022-08-17T00:49:45.042Z,100.00
2022-08-17T00:52:55.970Z,100.00
2022-08-17T00:56:01.324Z,100.00
2022-08-17T00:59:05.879Z,100.00
2022-08-17T01:02:10.566Z,100.00
2022-08-17T01:05:18.492Z,100.00
2022-08-17T01:08:24.811Z,100.00
2022-08-17T01:11:27.720Z,100.00
2022-08-17T01:14:29.194Z,100.00
2022-08-17T01:17:31.015Z,100.00
2022-08-17T01:20:41.883Z,100.00
2022-08-17T01:23:49.656Z,100.00
2022-08-17T01:26:51.446Z,100.00
2022-08-17T01:29:58.568Z,100.00
2022-08-17T01:33:00.087Z,100.00
2022-08-17T01:36:01.934Z,100.00
2022-08-17T01:39:06.643Z,100.00
2022-08-17T01:42:13.765Z,100.00
2022-08-17T01:45:19.891Z,100.00
2022-08-17T01:48:22.750Z,100.00
2022-08-17T01:51:33.260Z,100.00
2022-08-17T01:54:36.200Z,100.00
2022-08-17T01:57:37.778Z,100.00
2022-08-17T02:00:46.778Z,100.00
2022-08-17T02:04:02.483Z,100.00
2022-08-17T02:07:04.034Z,100.00
2022-08-17T02:10:19.998Z,100.00
2022-08-17T02:13:22.078Z,100.00
2022-08-17T02:16:23.582Z,100.00
2022-08-17T02:19:25.124Z,100.00
2022-08-17T02:22:28.373Z,100.00
2022-08-17T02:25:32.782Z,100.00
2022-08-17T02:28:34.364Z,100.00
2022-08-17T02:31:35.925Z,100.00
2022-08-17T02:34:37.471Z,100.00
2022-08-17T02:37:41.931Z,100.00
2022-08-17T02:40:43.617Z,100.00
2022-08-17T02:43:46.733Z,100.00
2022-08-17T02:46:48.293Z,100.00
2022-08-17T02:49:54.411Z,100.00
2022-08-17T02:53:01.640Z,100.00
2022-08-17T02:56:04.393Z,100.00
2022-08-17T02:59:05.874Z,100.00
2022-08-17T03:02:10.206Z,100.00
2022-08-17T03:05:14.707Z,100.00
2022-08-17T03:08:16.193Z,100.00
2022-08-17T03:11:17.762Z,100.00
2022-08-17T03:14:19.362Z,100.00
2022-08-17T03:17:27.720Z,100.00
2022-08-17T03:20:31.984Z,100.00
2022-08-17T03:23:33.653Z,100.00
2022-08-17T03:26:35.363Z,100.00
2022-08-17T03:29:36.835Z,100.00
2022-08-17T03:32:44.761Z,100.00
2022-08-17T03:35:47.247Z,100.00
2022-08-17T03:38:48.735Z,100.00
2022-08-17T03:41:52.640Z,100.00
2022-08-17T03:44:56.961Z,100.00
2022-08-17T03:48:17.733Z,100.00
2022-08-17T03:51:42.579Z,100.00
2022-08-17T03:55:04.014Z,100.00
2022-08-17T03:58:05.538Z,100.00
2022-08-17T04:01:07.211Z,100.00
2022-08-17T04:04:08.877Z,100.00
2022-08-17T04:07:10.405Z,100.00
2022-08-17T04:10:11.901Z,100.00
2022-08-17T04:13:14.142Z,100.00
2022-08-17T04:16:15.669Z,100.00
2022-08-17T04:19:17.167Z,100.00
2022-08-17T04:22:33.121Z,100.00
2022-08-17T04:25:40.195Z,100.00
2022-08-17T04:28:43.389Z,100.00
2022-08-17T04:31:45.023Z,100.00
2022-08-17T04:34:46.497Z,100.00
2022-08-17T04:37:48.466Z,100.00
2022-08-17T04:41:09.639Z,100.00
2022-08-17T04:44:12.052Z,100.00
2022-08-17T04:47:13.997Z,100.00
2022-08-17T04:50:15.539Z,100.00
2022-08-17T04:53:18.622Z,100.00
2022-08-17T04:56:20.241Z,100.00
2022-08-17T04:59:24.578Z,100.00
2022-08-17T05:02:26.118Z,100.00
2022-08-17T05:05:31.398Z,100.00
2022-08-17T05:08:33.333Z,100.00
2022-08-17T05:11:35.359Z,100.00
2022-08-17T05:14:39.046Z,100.00
2022-08-17T05:17:40.502Z,100.00
2022-08-17T05:20:42.245Z,100.00
2022-08-17T05:23:45.489Z,100.00
2022-08-17T05:26:54.746Z,100.00
2022-08-17T05:29:57.084Z,100.00
2022-08-17T05:33:02.238Z,100.00
2022-08-17T05:36:10.741Z,100.00
2022-08-17T05:39:32.243Z,100.00
2022-08-17T05:42:33.737Z,100.00
2022-08-17T05:45:55.166Z,100.00
2022-08-17T05:49:02.395Z,100.00
2022-08-17T05:52:20.674Z,100.00
2022-08-17T05:55:48.943Z,100.00
2022-08-17T05:59:03.681Z,100.00
2022-08-17T06:02:14.520Z,100.00
2022-08-17T06:05:21.957Z,100.00
2022-08-17T06:08:42.434Z,100.00
2022-08-17T06:11:53.646Z,100.00
2022-08-17T06:15:30.150Z,100.00
2022-08-17T06:18:40.890Z,100.00
2022-08-17T06:21:47.630Z,100.00
2022-08-17T06:25:01.027Z,100.00
2022-08-17T06:28:14.601Z,100.00
2022-08-17T06:31:22.208Z,100.00
2022-08-17T06:34:23.931Z,100.00
2022-08-17T06:37:45.529Z,100.00
2022-08-17T06:41:12.478Z,100.00
2022-08-17T06:44:43.492Z,100.00
2022-08-17T06:48:00.723Z,100.00
2022-08-17T06:51:21.607Z,100.00
2022-08-17T06:54:52.127Z,100.00
2022-08-17T06:57:59.985Z,100.00
2022-08-17T07:01:14.766Z,100.00
2022-08-17T07:04:26.338Z,100.00
2022-08-17T07:07:47.859Z,100.00
2022-08-17T07:10:56.541Z,100.00
2022-08-17T07:14:06.489Z,100.00
2022-08-17T07:17:14.413Z,100.00
2022-08-17T07:20:22.379Z,100.00
2022-08-17T07:23:40.034Z,98.53
2022-08-17T07:26:41.557Z,96.15
2022-08-17T07:29:58.209Z,94.38
2022-08-17T07:33:13.212Z,95.36
2022-08-17T07:36:29.606Z,93.72
2022-08-17T07:39:31.708Z,91.81
2022-08-17T07:42:34.390Z,89.47
2022-08-17T07:46:27.518Z,89.38
2022-08-17T07:49:31.879Z,83.70
2022-08-17T07:52:50.357Z,96.57
2022-08-17T07:55:53.835Z,98.11
2022-08-17T07:59:13.642Z,95.03
2022-08-17T08:02:40.270Z,100.00
2022-08-17T08:05:52.224Z,100.00
2022-08-17T08:08:55.602Z,100.00
2022-08-17T08:11:57.085Z,99.00
2022-08-17T08:15:02.533Z,97.85
2022-08-17T08:18:06.642Z,98.16
2022-08-17T08:21:12.941Z,97.82
2022-08-17T08:24:23.486Z,97.05
2022-08-17T08:27:36.144Z,97.37
2022-08-17T08:30:47.333Z,100.00
2022-08-17T08:34:58.563Z,100.00
2022-08-17T08:37:55.600Z,100.00
2022-08-17T08:41:19.199Z,100.00
2022-08-17T08:44:59.473Z,100.00
2022-08-17T08:48:46.030Z,100.00
2022-08-17T08:51:52.869Z,100.00
2022-08-17T08:55:05.180Z,100.00
2022-08-17T08:58:31.497Z,100.00
2022-08-17T09:01:57.184Z,100.00
2022-08-17T09:05:17.087Z,100.00
2022-08-17T09:08:37.526Z,100.00
2022-08-17T09:12:01.220Z,100.00
2022-08-17T09:15:17.658Z,100.00
2022-08-17T09:19:02.934Z,100.00
2022-08-17T09:21:55.586Z,100.00
2022-08-17T09:25:15.934Z,100.00
2022-08-17T09:28:24.008Z,100.00
2022-08-17T09:31:35.461Z,100.00
2022-08-17T09:34:57.578Z,100.00
2022-08-17T09:38:33.974Z,100.00
2022-08-17T09:41:48.692Z,100.00
2022-08-17T09:44:56.297Z,100.00
2022-08-17T09:48:24.403Z,100.00
2022-08-17T09:51:34.969Z,100.00
2022-08-17T09:54:40.666Z,100.00
2022-08-17T09:58:00.431Z,100.00
2022-08-17T10:01:29.319Z,100.00
2022-08-17T10:04:57.838Z,100.00
2022-08-17T10:08:08.586Z,100.00
2022-08-17T10:12:09.368Z,100.00
2022-08-17T10:15:36.950Z,94.56
2022-08-17T10:19:03.270Z,89.46
2022-08-17T10:22:41.800Z,88.06
2022-08-17T10:26:04.665Z,87.34
2022-08-17T10:29:16.803Z,87.14
2022-08-17T10:32:32.797Z,87.84
2022-08-17T10:36:17.591Z,83.71
2022-08-17T10:39:32.236Z,80.40
2022-08-17T10:42:48.813Z,78.01
2022-08-17T10:46:26.846Z,75.15
2022-08-17T10:49:29.468Z,79.32
2022-08-17T10:52:31.304Z,76.45
2022-08-17T10:55:32.822Z,74.77
2022-08-17T10:59:01.047Z,74.74
2022-08-17T11:02:12.153Z,72.12
2022-08-17T11:06:05.849Z,72.55
2022-08-17T11:09:19.888Z,73.47
2022-08-17T11:12:27.769Z,74.72
2022-08-17T11:15:41.606Z,73.23
2022-08-17T11:18:54.091Z,71.88
2022-08-17T11:22:33.972Z,72.14
2022-08-17T11:25:56.699Z,75.67
2022-08-17T11:29:03.606Z,76.13
2022-08-17T11:32:16.911Z,78.90
2022-08-17T11:35:21.260Z,80.48
2022-08-17T11:38:46.027Z,80.57
2022-08-17T11:42:05.829Z,81.78
2022-08-17T11:45:07.246Z,83.62
2022-08-17T11:48:56.999Z,86.46
2022-08-17T11:52:01.529Z,88.77
2022-08-17T11:55:33.475Z,88.64
2022-08-17T11:58:29.167Z,89.20
2022-08-17T12:01:50.728Z,88.48
2022-08-17T12:05:12.301Z,88.22
2022-08-17T12:08:19.791Z,84.41
2022-08-17T12:12:11.175Z,85.76
2022-08-17T12:15:10.693Z,80.12
2022-08-17T12:18:24.986Z,73.89
2022-08-17T12:21:40.109Z,71.44
2022-08-17T12:25:10.193Z,70.45
2022-08-17T12:28:31.746Z,74.01
2022-08-17T12:31:45.115Z,67.52
2022-08-17T12:34:47.779Z,66.92
2022-08-17T12:37:50.538Z,65.65
2022-08-17T12:40:54.994Z,65.27
2022-08-17T12:44:12.259Z,61.51
2022-08-17T12:47:21.819Z,60.85
2022-08-17T12:50:29.571Z,57.71
2022-08-17T12:53:35.068Z,57.68
2022-08-17T12:56:36.657Z,54.05
2022-08-17T12:59:45.253Z,55.02
2022-08-17T13:02:59.110Z,52.74
2022-08-17T13:06:06.842Z,50.10
2022-08-17T13:09:15.271Z,51.79
2022-08-17T13:12:33.582Z,51.54
2022-08-17T13:15:44.470Z,51.41
2022-08-17T13:18:48.408Z,52.65
2022-08-17T13:21:56.658Z,48.70
2022-08-17T13:25:05.316Z,48.68
2022-08-17T13:28:35.736Z,48.83
2022-08-17T13:31:47.458Z,46.93
2022-08-17T13:35:15.085Z,47.80
2022-08-17T13:38:39.425Z,47.06
2022-08-17T13:41:40.991Z,48.24
2022-08-17T13:44:42.662Z,48.90
2022-08-17T13:47:44.172Z,47.52
2022-08-17T13:51:05.692Z,49.20
2022-08-17T13:54:18.866Z,48.60
2022-08-17T13:57:27.618Z,48.30
2022-08-17T14:00:33.372Z,46.96
2022-08-17T14:03:34.928Z,47.55
2022-08-17T14:06:54.877Z,45.19
2022-08-17T14:10:05.158Z,45.72
2022-08-17T14:13:07.655Z,45.65
2022-08-17T14:16:09.156Z,44.81
2022-08-17T14:19:12.828Z,44.15
2022-08-17T14:22:25.707Z,46.22
2022-08-17T14:25:29.577Z,44.41
2022-08-17T14:28:32.062Z,41.86
2022-08-17T14:31:37.521Z,41.96
2022-08-17T14:34:39.291Z,41.75
2022-08-17T14:37:41.181Z,41.93
2022-08-17T14:40:42.982Z,41.47
2022-08-17T14:43:45.592Z,43.23
2022-08-17T14:46:48.962Z,42.07
2022-08-17T14:49:50.780Z,41.75
2022-08-17T14:52:52.346Z,40.97
2022-08-17T14:55:54.005Z,40.57
2022-08-17T14:58:55.858Z,41.67
2022-08-17T15:01:58.304Z,41.72
2022-08-17T15:05:04.119Z,40.49
2022-08-17T15:08:06.339Z,41.32
2022-08-17T15:11:14.427Z,41.61
2022-08-17T15:14:16.742Z,41.10
2022-08-17T15:17:18.325Z,40.93
2022-08-17T15:20:28.077Z,40.21
2022-08-17T15:23:29.738Z,39.41
2022-08-17T15:26:31.602Z,40.88
2022-08-17T15:29:33.320Z,41.49
2022-08-17T15:32:38.439Z,40.82
2022-08-17T15:35:40.529Z,40.11
2022-08-17T15:38:42.124Z,40.22
2022-08-17T15:41:47.174Z,39.59
2022-08-17T15:45:06.605Z,40.39
2022-08-17T15:48:08.819Z,41.38
2022-08-17T15:51:26.149Z,41.79
2022-08-17T15:54:31.732Z,42.47
2022-08-17T15:57:36.323Z,43.37
2022-08-17T16:00:53.177Z,43.05
2022-08-17T16:04:06.520Z,43.79
2022-08-17T16:07:09.118Z,43.10
2022-08-17T16:10:13.183Z,44.77
2022-08-17T16:13:19.169Z,45.06
2022-08-17T16:16:20.648Z,43.82
2022-08-17T16:19:22.203Z,43.36
2022-08-17T16:22:50.406Z,44.21
2022-08-17T16:25:54.117Z,44.67
2022-08-17T16:28:57.536Z,45.44
2022-08-17T16:32:08.649Z,45.95
2022-08-17T16:35:17.250Z,45.92
2022-08-17T16:38:19.260Z,46.45
2022-08-17T16:41:39.622Z,47.11
2022-08-17T16:44:41.112Z,47.74
2022-08-17T16:47:42.699Z,50.33
2022-08-17T16:50:44.193Z,50.62
2022-08-17T16:54:06.387Z,52.69
2022-08-17T16:57:07.901Z,50.54
2022-08-17T17:00:12.951Z,51.63
2022-08-17T17:03:21.551Z,53.22
2022-08-17T17:06:40.210Z,55.62
2022-08-17T17:09:43.888Z,60.01
2022-08-17T17:13:03.902Z,61.46
2022-08-17T17:16:17.744Z,57.93
2022-08-17T17:19:39.080Z,55.21
2022-08-17T17:22:55.335Z,57.36
2022-08-17T17:26:11.767Z,60.43
2022-08-17T17:29:51.424Z,56.52
2022-08-17T17:33:06.567Z,54.29
2022-08-17T17:36:13.314Z,55.55
2022-08-17T17:39:25.948Z,54.89
2022-08-17T17:42:31.776Z,54.48
2022-08-17T17:45:40.805Z,56.21
2022-08-17T17:48:42.290Z,55.98
2022-08-17T17:52:09.264Z,56.23
2022-08-17T17:55:25.097Z,58.18
2022-08-17T17:58:44.089Z,57.12
2022-08-17T18:02:34.475Z,58.92
2022-08-17T18:06:16.181Z,61.56
2022-08-17T18:10:01.341Z,65.07
2022-08-17T18:13:28.209Z,67.96
2022-08-17T18:16:32.786Z,67.69
2022-08-17T18:19:39.830Z,69.85
2022-08-17T18:22:41.338Z,69.99
2022-08-17T18:25:49.242Z,74.42
2022-08-17T18:28:51.759Z,75.68
2022-08-17T18:32:11.987Z,77.40
2022-08-17T18:35:16.453Z,78.94
2022-08-17T18:38:31.231Z,80.96
2022-08-17T18:41:40.516Z,92.18
2022-08-17T18:44:44.518Z,89.91
2022-08-17T18:47:54.609Z,88.21
2022-08-17T18:51:04.963Z,86.16
2022-08-17T18:54:22.649Z,86.16
2022-08-17T18:57:37.735Z,86.09
2022-08-17T19:00:42.537Z,89.78
2022-08-17T19:03:46.557Z,93.13
2022-08-17T19:07:03.514Z,94.63
2022-08-17T19:10:23.503Z,96.57
2022-08-17T19:13:31.222Z,94.42
2022-08-17T19:16:43.443Z,92.88
2022-08-17T19:20:02.152Z,94.46
2022-08-17T19:23:24.238Z,96.73
2022-08-17T19:26:53.637Z,98.49
2022-08-17T19:30:07.506Z,98.74
2022-08-17T19:33:09.807Z,97.47
2022-08-17T19:36:22.442Z,96.41
2022-08-17T19:39:50.418Z,95.34
2022-08-17T19:43:02.733Z,96.98
2022-08-17T19:46:36.897Z,96.79
2022-08-17T19:49:54.222Z,96.14
2022-08-17T19:53:14.652Z,95.39
2022-08-17T19:56:28.689Z,95.29
2022-08-17T20:00:04.703Z,98.11
2022-08-17T20:03:24.157Z,100.00
2022-08-17T20:06:28.715Z,100.00
2022-08-17T20:10:02.381Z,100.00
2022-08-17T20:13:20.103Z,100.00
2022-08-17T20:16:35.274Z,100.00
2022-08-17T20:19:51.988Z,100.00
2022-08-17T20:23:04.676Z,100.00
2022-08-17T20:26:26.926Z,100.00
2022-08-17T20:29:40.190Z,100.00
2022-08-17T20:32:48.398Z,100.00
2022-08-17T20:36:03.335Z,100.00
2022-08-17T20:39:04.880Z,100.00
2022-08-17T20:42:28.082Z,100.00
2022-08-17T20:45:58.030Z,100.00
2022-08-17T20:49:08.678Z,100.00
2022-08-17T20:52:13.684Z,100.00
2022-08-17T20:55:34.224Z,100.00
2022-08-17T20:58:42.145Z,100.00
2022-08-17T21:02:06.650Z,100.00
2022-08-17T21:06:00.739Z,100.00
2022-08-17T21:09:16.081Z,100.00
2022-08-17T21:12:47.730Z,100.00
2022-08-17T21:15:58.811Z,100.00
2022-08-17T21:19:17.505Z,100.00
2022-08-17T21:22:28.543Z,100.00
2022-08-17T21:26:10.142Z,100.00
2022-08-17T21:29:31.396Z,100.00
2022-08-17T21:32:37.522Z,100.00
2022-08-17T21:36:16.389Z,100.00
2022-08-17T21:39:30.588Z,100.00
2022-08-17T21:42:36.106Z,100.00
2022-08-17T21:45:42.790Z,100.00
2022-08-17T21:48:48.311Z,100.00
2022-08-17T21:51:53.800Z,100.00
2022-08-17T21:55:02.332Z,100.00
2022-08-17T21:58:27.174Z,100.00
2022-08-17T22:01:42.854Z,100.00
2022-08-17T22:04:56.512Z,100.00
2022-08-17T22:08:23.561Z,100.00
2022-08-17T22:11:25.075Z,100.00
2022-08-17T22:14:51.458Z,100.00
2022-08-17T22:17:55.739Z,100.00
2022-08-17T22:21:01.750Z,100.00
2022-08-17T22:24:15.150Z,100.00
2022-08-17T22:27:18.715Z,100.00
2022-08-17T22:30:54.819Z,100.00
2022-08-17T22:34:02.050Z,100.00
2022-08-17T22:37:28.953Z,100.00
2022-08-17T22:40:34.365Z,100.00
2022-08-17T22:43:38.496Z,100.00
2022-08-17T22:46:50.542Z,100.00
2022-08-17T22:49:59.033Z,100.00
2022-08-17T22:53:28.847Z,100.00
2022-08-17T22:56:49.215Z,100.00
2022-08-17T22:59:55.553Z,100.00
2022-08-17T23:03:18.467Z,100.00
2022-08-17T23:06:20.051Z,100.00
2022-08-17T23:09:21.966Z,100.00
2022-08-17T23:12:27.353Z,100.00
2022-08-17T23:15:30.592Z,100.00
2022-08-17T23:18:32.087Z,100.00
2022-08-17T23:21:33.747Z,100.00
2022-08-17T23:24:45.956Z,100.00
2022-08-17T23:27:47.711Z,100.00
2022-08-17T23:30:49.420Z,100.00
2022-08-17T23:33:51.113Z,100.00
2022-08-17T23:36:53.078Z,100.00
2022-08-17T23:39:54.706Z,100.00
2022-08-17T23:42:56.250Z,100.00
2022-08-17T23:46:00.675Z,100.00
2022-08-17T23:49:03.204Z,100.00
2022-08-17T23:52:12.547Z,100.00
2022-08-17T23:55:16.826Z,100.00
2022-08-17T23:58:18.475Z,100.00
